createdAt,value
2019-04-11T00:08:58.606Z,0.00
2019-04-11T00:23:59.288Z,0.00
2019-04-11T00:38:59.414Z,0.00
2019-04-11T00:54:00.595Z,0.00
2019-04-11T01:09:02.041Z,0.00
2019-04-11T01:24:03.723Z,0.00
2019-04-11T01:39:03.772Z,0.00
2019-04-11T01:54:03.850Z,0.00
2019-04-11T02:09:04.123Z,0.00
2019-04-11T02:24:04.332Z,0.00
2019-04-11T02:39:09.892Z,0.00
2019-04-11T02:54:11.398Z,0.00
2019-04-11T03:09:37.446Z,0.00
2019-04-11T03:24:38.683Z,0.00
2019-04-11T03:39:59.358Z,0.00
2019-04-11T03:54:45.551Z,0.00
2019-04-11T04:09:46.394Z,0.00
2019-04-11T04:24:47.720Z,16.88
2019-04-11T04:39:55.314Z,50.62
2019-04-11T04:54:57.201Z,84.38
2019-04-11T05:10:00.794Z,140.62
2019-04-11T05:25:03.347Z,191.25
2019-04-11T05:40:05.102Z,292.50
2019-04-11T05:55:08.286Z,450.00
2019-04-11T06:10:13.244Z,495.00
2019-04-11T06:25:16.663Z,720.00
2019-04-11T06:40:20.160Z,939.38
2019-04-11T06:55:24.779Z,1378.12
2019-04-11T07:10:26.506Z,1631.25
2019-04-11T07:25:27.255Z,1935.00
2019-04-11T07:40:33.311Z,2323.12
2019-04-11T07:55:34.760Z,2655.00
2019-04-11T08:10:35.255Z,2992.50
2019-04-11T08:25:37.519Z,2176.88
2019-04-11T08:40:37.757Z,3673.12
2019-04-11T08:55:49.703Z,691.88
2019-04-11T09:10:49.199Z,720.00
2019-04-11T09:25:52.204Z,1569.38
2019-04-11T09:40:54.155Z,540.00
2019-04-11T09:55:53.966Z,916.88
2019-04-11T10:10:54.534Z,1096.88
2019-04-11T10:25:55.824Z,646.88
2019-04-11T10:40:56.614Z,528.75
2019-04-11T10:55:57.915Z,444.38
2019-04-11T11:10:58.171Z,444.38
2019-04-11T11:25:58.528Z,956.25
2019-04-11T11:41:00.360Z,421.88
2019-04-11T11:56:00.399Z,613.12
2019-04-11T12:11:01.779Z,376.88
2019-04-11T12:26:01.818Z,196.88
2019-04-11T12:41:01.986Z,270.00
2019-04-11T12:56:01.982Z,483.75
2019-04-11T13:11:02.232Z,225.00
2019-04-11T13:26:02.427Z,376.88
2019-04-11T13:41:02.377Z,286.88
2019-04-11T13:56:02.617Z,196.88
2019-04-11T14:11:02.587Z,230.62
2019-04-11T14:26:02.831Z,270.00
2019-04-11T14:41:03.142Z,196.88
2019-04-11T14:56:03.345Z,135.00
2019-04-11T15:11:03.533Z,95.62
2019-04-11T15:26:07.890Z,101.25
2019-04-11T15:41:08.473Z,73.12
2019-04-11T15:56:08.604Z,61.88
2019-04-11T16:11:12.197Z,67.50
2019-04-11T16:26:13.790Z,67.50
2019-04-11T16:42:55.694Z,56.25
2019-04-11T16:57:55.926Z,39.38
2019-04-11T17:12:56.690Z,28.12
2019-04-11T17:27:57.420Z,16.88
2019-04-11T17:42:58.110Z,5.62
2019-04-11T17:57:58.360Z,0.00
2019-04-11T18:13:00.479Z,0.00
2019-04-11T18:28:01.599Z,0.00
2019-04-11T18:43:01.813Z,0.00
2019-04-11T18:58:04.537Z,0.00
2019-04-11T19:13:07.633Z,0.00
2019-04-11T19:28:07.424Z,0.00
2019-04-11T19:43:08.610Z,0.00
2019-04-11T19:58:08.674Z,0.00
2019-04-11T20:13:08.874Z,0.00
2019-04-11T20:28:09.124Z,0.00
2019-04-11T20:43:10.207Z,0.00
2019-04-11T20:58:11.016Z,0.00
2019-04-11T21:13:11.629Z,0.00
2019-04-11T21:28:11.828Z,0.00
2019-04-11T21:43:12.544Z,0.00
2019-04-11T21:58:12.674Z,0.00
2019-04-11T22:13:12.869Z,0.00
2019-04-11T22:28:12.988Z,0.00
2019-04-11T22:43:24.063Z,0.00
2019-04-11T22:58:18.751Z,0.00
2019-04-11T23:13:19.182Z,0.00
2019-04-11T23:28:19.236Z,0.00
2019-04-11T23:43:20.157Z,0.00
2019-04-11T23:58:21.166Z,0.00
